sensor_id;sensor_type;location;lat;lon;timestamp;P1;durP1;ratioP1;P2;durP2;ratioP2
53674;SDS011;39574;50.534;8.500;2022-09-03T00:03:07;2.6;;;0.9;;
53674;SDS011;39574;50.534;8.500;2022-09-03T00:08:08;3.3;;;0.9;;
53674;SDS011;39574;50.534;8.500;2022-09-03T00:13:06;3.5;;;1.0;;
53674;SDS011;39574;50.534;8.500;2022-09-03T00:18:05;3.1;;;1.0;;
53674;SDS011;39574;50.534;8.500;2022-09-03T00:23:05;3.2;;;1.0;;
53674;SDS011;39574;50.534;8.500;2022-09-03T00:28:05;2.9;;;1.0;;
53674;SDS011;39574;50.534;8.500;2022-09-03T00:33:04;2.5;;;1.0;;
53674;SDS011;39574;50.534;8.500;2022-09-03T00:38:02;2.3;;;0.9;;
53674;SDS011;39574;50.534;8.500;2022-09-03T00:43:04;2.1;;;0.9;;
53674;SDS011;39574;50.534;8.500;2022-09-03T00:48:03;2.1;;;0.9;;
53674;SDS011;39574;50.534;8.500;2022-09-03T00:53:03;2.3;;;0.9;;
53674;SDS011;39574;50.534;8.500;2022-09-03T00:58:04;2.2;;;0.9;;
53674;SDS011;39574;50.534;8.500;2022-09-03T01:03:01;2.1;;;1.0;;
53674;SDS011;39574;50.534;8.500;2022-09-03T01:08:02;2.2;;;1.1;;
53674;SDS011;39574;50.534;8.500;2022-09-03T01:12:59;2.4;;;1.1;;
53674;SDS011;39574;50.534;8.500;2022-09-03T01:18:00;2.5;;;1.2;;
53674;SDS011;39574;50.534;8.500;2022-09-03T01:23:03;2.9;;;1.3;;
53674;SDS011;39574;50.534;8.500;2022-09-03T01:28:00;2.9;;;1.3;;
53674;SDS011;39574;50.534;8.500;2022-09-03T01:32:57;2.6;;;1.2;;
53674;SDS011;39574;50.534;8.500;2022-09-03T01:37:58;2.1;;;1.1;;
53674;SDS011;39574;50.534;8.500;2022-09-03T01:42:58;2.1;;;1.1;;
53674;SDS011;39574;50.534;8.500;2022-09-03T01:47:56;1.8;;;1.0;;
53674;SDS011;39574;50.534;8.500;2022-09-03T01:52:53;1.8;;;1.0;;
53674;SDS011;39574;50.534;8.500;2022-09-03T01:57:52;2.2;;;1.0;;
53674;SDS011;39574;50.534;8.500;2022-09-03T02:02:51;2.1;;;1.0;;
53674;SDS011;39574;50.534;8.500;2022-09-03T02:07:54;2.5;;;0.9;;
53674;SDS011;39574;50.534;8.500;2022-09-03T02:12:50;2.3;;;0.9;;
53674;SDS011;39574;50.534;8.500;2022-09-03T02:17:49;2.2;;;0.9;;
53674;SDS011;39574;50.534;8.500;2022-09-03T02:22:48;2.4;;;1.1;;
53674;SDS011;39574;50.534;8.500;2022-09-03T02:27:48;2.0;;;1.0;;
53674;SDS011;39574;50.534;8.500;2022-09-03T02:32:47;2.3;;;1.0;;
53674;SDS011;39574;50.534;8.500;2022-09-03T02:37:46;3.2;;;1.1;;
53674;SDS011;39574;50.534;8.500;2022-09-03T02:42:46;2.9;;;1.1;;
53674;SDS011;39574;50.534;8.500;2022-09-03T02:47:45;2.9;;;1.2;;
53674;SDS011;39574;50.534;8.500;2022-09-03T02:52:44;2.4;;;1.1;;
53674;SDS011;39574;50.534;8.500;2022-09-03T02:57:44;2.3;;;1.0;;
53674;SDS011;39574;50.534;8.500;2022-09-03T03:02:43;2.5;;;1.1;;
53674;SDS011;39574;50.534;8.500;2022-09-03T03:07:42;3.0;;;1.1;;
53674;SDS011;39574;50.534;8.500;2022-09-03T03:12:41;3.4;;;1.1;;
53674;SDS011;39574;50.534;8.500;2022-09-03T03:17:41;3.0;;;1.1;;
53674;SDS011;39574;50.534;8.500;2022-09-03T03:22:40;2.8;;;1.2;;
53674;SDS011;39574;50.534;8.500;2022-09-03T03:27:39;2.6;;;1.1;;
53674;SDS011;39574;50.534;8.500;2022-09-03T03:32:38;2.5;;;1.1;;
53674;SDS011;39574;50.534;8.500;2022-09-03T03:37:38;2.4;;;1.1;;
53674;SDS011;39574;50.534;8.500;2022-09-03T03:42:37;2.3;;;1.0;;
53674;SDS011;39574;50.534;8.500;2022-09-03T03:47:36;2.1;;;1.1;;
53674;SDS011;39574;50.534;8.500;2022-09-03T03:52:35;2.0;;;1.0;;
53674;SDS011;39574;50.534;8.500;2022-09-03T03:57:35;2.2;;;1.2;;
53674;SDS011;39574;50.534;8.500;2022-09-03T04:02:34;2.2;;;1.2;;
53674;SDS011;39574;50.534;8.500;2022-09-03T04:07:33;2.4;;;1.2;;
53674;SDS011;39574;50.534;8.500;2022-09-03T04:12:32;2.4;;;1.2;;
53674;SDS011;39574;50.534;8.500;2022-09-03T04:17:32;2.1;;;1.2;;
53674;SDS011;39574;50.534;8.500;2022-09-03T04:22:31;2.7;;;1.3;;
53674;SDS011;39574;50.534;8.500;2022-09-03T04:27:30;2.5;;;1.4;;
53674;SDS011;39574;50.534;8.500;2022-09-03T04:32:29;2.5;;;1.4;;
53674;SDS011;39574;50.534;8.500;2022-09-03T04:37:29;2.4;;;1.4;;
53674;SDS011;39574;50.534;8.500;2022-09-03T04:42:28;2.4;;;1.4;;
53674;SDS011;39574;50.534;8.500;2022-09-03T04:47:27;2.9;;;1.4;;
53674;SDS011;39574;50.534;8.500;2022-09-03T04:52:27;2.8;;;1.4;;
53674;SDS011;39574;50.534;8.500;2022-09-03T04:57:26;2.4;;;1.4;;
53674;SDS011;39574;50.534;8.500;2022-09-03T05:02:25;2.4;;;1.3;;
53674;SDS011;39574;50.534;8.500;2022-09-03T05:07:24;2.4;;;1.4;;
53674;SDS011;39574;50.534;8.500;2022-09-03T05:12:23;2.3;;;1.3;;
53674;SDS011;39574;50.534;8.500;2022-09-03T05:17:22;2.8;;;1.4;;
53674;SDS011;39574;50.534;8.500;2022-09-03T05:22:22;2.6;;;1.3;;
53674;SDS011;39574;50.534;8.500;2022-09-03T05:27:21;2.4;;;1.4;;
53674;SDS011;39574;50.534;8.500;2022-09-03T05:32:20;2.2;;;1.4;;
53674;SDS011;39574;50.534;8.500;2022-09-03T05:37:20;2.0;;;1.4;;
53674;SDS011;39574;50.534;8.500;2022-09-03T05:42:19;2.7;;;1.3;;
53674;SDS011;39574;50.534;8.500;2022-09-03T05:47:18;2.9;;;1.3;;
53674;SDS011;39574;50.534;8.500;2022-09-03T05:52:17;2.6;;;1.3;;
53674;SDS011;39574;50.534;8.500;2022-09-03T05:57:16;2.4;;;1.3;;
53674;SDS011;39574;50.534;8.500;2022-09-03T06:02:16;2.6;;;1.3;;
53674;SDS011;39574;50.534;8.500;2022-09-03T06:07:15;3.1;;;1.4;;
53674;SDS011;39574;50.534;8.500;2022-09-03T06:12:14;3.2;;;1.4;;
53674;SDS011;39574;50.534;8.500;2022-09-03T06:17:14;3.1;;;1.5;;
53674;SDS011;39574;50.534;8.500;2022-09-03T06:22:13;3.6;;;1.5;;
53674;SDS011;39574;50.534;8.500;2022-09-03T06:27:12;3.0;;;1.5;;
53674;SDS011;39574;50.534;8.500;2022-09-03T06:32:11;3.2;;;1.5;;
53674;SDS011;39574;50.534;8.500;2022-09-03T06:37:11;3.1;;;1.4;;
53674;SDS011;39574;50.534;8.500;2022-09-03T06:42:10;2.9;;;1.4;;
53674;SDS011;39574;50.534;8.500;2022-09-03T06:47:09;3.3;;;1.5;;
53674;SDS011;39574;50.534;8.500;2022-09-03T06:52:08;3.3;;;1.6;;
53674;SDS011;39574;50.534;8.500;2022-09-03T06:57:08;3.3;;;1.6;;
53674;SDS011;39574;50.534;8.500;2022-09-03T07:02:07;3.5;;;1.6;;
53674;SDS011;39574;50.534;8.500;2022-09-03T07:07:06;4.2;;;1.5;;
53674;SDS011;39574;50.534;8.500;2022-09-03T07:12:06;3.7;;;1.4;;
53674;SDS011;39574;50.534;8.500;2022-09-03T07:17:05;3.5;;;1.4;;
53674;SDS011;39574;50.534;8.500;2022-09-03T07:22:04;3.7;;;1.4;;
53674;SDS011;39574;50.534;8.500;2022-09-03T07:27:04;3.2;;;1.5;;
53674;SDS011;39574;50.534;8.500;2022-09-03T07:32:03;3.5;;;1.4;;
53674;SDS011;39574;50.534;8.500;2022-09-03T07:37:02;3.4;;;1.4;;
53674;SDS011;39574;50.534;8.500;2022-09-03T07:42:02;2.8;;;1.4;;
53674;SDS011;39574;50.534;8.500;2022-09-03T07:47:01;2.6;;;1.4;;
53674;SDS011;39574;50.534;8.500;2022-09-03T07:52:00;2.5;;;1.3;;
53674;SDS011;39574;50.534;8.500;2022-09-03T07:57:00;3.2;;;1.4;;
53674;SDS011;39574;50.534;8.500;2022-09-03T08:01:59;2.8;;;1.3;;
53674;SDS011;39574;50.534;8.500;2022-09-03T08:06:58;2.9;;;1.2;;
53674;SDS011;39574;50.534;8.500;2022-09-03T08:11:57;2.7;;;1.2;;
53674;SDS011;39574;50.534;8.500;2022-09-03T08:16:57;2.9;;;1.1;;
53674;SDS011;39574;50.534;8.500;2022-09-03T08:21:56;4.6;;;1.2;;
53674;SDS011;39574;50.534;8.500;2022-09-03T08:26:56;3.9;;;1.3;;
53674;SDS011;39574;50.534;8.500;2022-09-03T08:31:55;4.6;;;1.3;;
53674;SDS011;39574;50.534;8.500;2022-09-03T08:36:54;3.5;;;1.2;;
53674;SDS011;39574;50.534;8.500;2022-09-03T08:42:00;2.6;;;1.1;;
53674;SDS011;39574;50.534;8.500;2022-09-03T08:46:54;3.0;;;1.3;;
53674;SDS011;39574;50.534;8.500;2022-09-03T08:51:53;2.5;;;1.3;;
53674;SDS011;39574;50.534;8.500;2022-09-03T08:56:52;2.8;;;1.3;;
53674;SDS011;39574;50.534;8.500;2022-09-03T09:01:54;3.8;;;1.6;;
53674;SDS011;39574;50.534;8.500;2022-09-03T09:06:52;4.2;;;1.5;;
53674;SDS011;39574;50.534;8.500;2022-09-03T09:11:54;3.5;;;1.4;;
53674;SDS011;39574;50.534;8.500;2022-09-03T09:16:52;3.8;;;1.3;;
53674;SDS011;39574;50.534;8.500;2022-09-03T09:21:50;2.9;;;1.2;;
53674;SDS011;39574;50.534;8.500;2022-09-03T09:26:48;2.6;;;1.2;;
53674;SDS011;39574;50.534;8.500;2022-09-03T09:31:48;3.1;;;1.2;;
53674;SDS011;39574;50.534;8.500;2022-09-03T09:36:49;3.7;;;1.2;;
53674;SDS011;39574;50.534;8.500;2022-09-03T09:42:04;3.8;;;1.3;;
53674;SDS011;39574;50.534;8.500;2022-09-03T09:46:46;3.9;;;1.3;;
53674;SDS011;39574;50.534;8.500;2022-09-03T09:51:45;4.1;;;1.4;;
53674;SDS011;39574;50.534;8.500;2022-09-03T09:56:45;3.5;;;1.4;;
53674;SDS011;39574;50.534;8.500;2022-09-03T10:01:44;3.4;;;1.4;;
53674;SDS011;39574;50.534;8.500;2022-09-03T10:06:44;4.7;;;1.4;;
53674;SDS011;39574;50.534;8.500;2022-09-03T10:11:45;4.3;;;1.3;;
53674;SDS011;39574;50.534;8.500;2022-09-03T10:16:44;3.9;;;1.3;;
53674;SDS011;39574;50.534;8.500;2022-09-03T10:21:44;3.8;;;1.3;;
53674;SDS011;39574;50.534;8.500;2022-09-03T10:26:42;3.7;;;1.3;;
53674;SDS011;39574;50.534;8.500;2022-09-03T10:31:44;3.4;;;1.3;;
53674;SDS011;39574;50.534;8.500;2022-09-03T10:36:43;3.1;;;1.4;;
53674;SDS011;39574;50.534;8.500;2022-09-03T10:41:44;3.1;;;1.4;;
53674;SDS011;39574;50.534;8.500;2022-09-03T10:46:43;2.9;;;1.5;;
53674;SDS011;39574;50.534;8.500;2022-09-03T10:51:40;2.9;;;1.5;;
53674;SDS011;39574;50.534;8.500;2022-09-03T10:56:41;2.7;;;1.6;;
53674;SDS011;39574;50.534;8.500;2022-09-03T11:01:41;3.2;;;1.6;;
53674;SDS011;39574;50.534;8.500;2022-09-03T11:06:39;3.4;;;1.6;;
53674;SDS011;39574;50.534;8.500;2022-09-03T11:11:41;3.2;;;1.5;;
53674;SDS011;39574;50.534;8.500;2022-09-03T11:16:38;3.1;;;1.6;;
53674;SDS011;39574;50.534;8.500;2022-09-03T11:21:37;3.1;;;1.6;;
53674;SDS011;39574;50.534;8.500;2022-09-03T11:26:36;2.8;;;1.6;;
53674;SDS011;39574;50.534;8.500;2022-09-03T11:31:37;2.8;;;1.5;;
53674;SDS011;39574;50.534;8.500;2022-09-03T11:36:36;2.4;;;1.5;;
53674;SDS011;39574;50.534;8.500;2022-09-03T11:41:34;2.4;;;1.4;;
53674;SDS011;39574;50.534;8.500;2022-09-03T11:51:34;3.4;;;1.5;;
53674;SDS011;39574;50.534;8.500;2022-09-03T11:56:33;3.4;;;1.5;;
53674;SDS011;39574;50.534;8.500;2022-09-03T12:01:32;3.2;;;1.6;;
53674;SDS011;39574;50.534;8.500;2022-09-03T12:06:37;3.2;;;1.6;;
53674;SDS011;39574;50.534;8.500;2022-09-03T12:11:35;3.0;;;1.6;;
53674;SDS011;39574;50.534;8.500;2022-09-03T12:16:40;3.7;;;1.7;;
53674;SDS011;39574;50.534;8.500;2022-09-03T12:21:36;3.6;;;1.7;;
53674;SDS011;39574;50.534;8.500;2022-09-03T12:26:37;3.3;;;1.7;;
53674;SDS011;39574;50.534;8.500;2022-09-03T12:31:31;3.3;;;1.7;;
53674;SDS011;39574;50.534;8.500;2022-09-03T12:36:35;3.4;;;1.8;;
53674;SDS011;39574;50.534;8.500;2022-09-03T12:41:29;3.6;;;1.8;;
53674;SDS011;39574;50.534;8.500;2022-09-03T12:46:30;4.2;;;1.9;;
53674;SDS011;39574;50.534;8.500;2022-09-03T12:51:30;3.8;;;1.8;;
53674;SDS011;39574;50.534;8.500;2022-09-03T12:56:28;3.4;;;1.7;;
53674;SDS011;39574;50.534;8.500;2022-09-03T13:01:29;3.0;;;1.8;;
53674;SDS011;39574;50.534;8.500;2022-09-03T13:06:28;2.7;;;1.8;;
53674;SDS011;39574;50.534;8.500;2022-09-03T13:11:27;2.4;;;1.8;;
53674;SDS011;39574;50.534;8.500;2022-09-03T13:16:32;2.7;;;1.7;;
53674;SDS011;39574;50.534;8.500;2022-09-03T13:21:29;2.9;;;1.7;;
53674;SDS011;39574;50.534;8.500;2022-09-03T13:26:28;3.4;;;1.7;;
53674;SDS011;39574;50.534;8.500;2022-09-03T13:31:27;2.9;;;1.6;;
53674;SDS011;39574;50.534;8.500;2022-09-03T13:36:27;3.1;;;1.6;;
53674;SDS011;39574;50.534;8.500;2022-09-03T13:41:28;2.5;;;1.6;;
53674;SDS011;39574;50.534;8.500;2022-09-03T13:46:27;2.4;;;1.5;;
53674;SDS011;39574;50.534;8.500;2022-09-03T13:51:25;2.4;;;1.4;;
53674;SDS011;39574;50.534;8.500;2022-09-03T13:56:29;2.2;;;1.4;;
53674;SDS011;39574;50.534;8.500;2022-09-03T14:01:25;2.7;;;1.5;;
53674;SDS011;39574;50.534;8.500;2022-09-03T14:06:37;3.1;;;1.5;;
53674;SDS011;39574;50.534;8.500;2022-09-03T14:11:26;2.7;;;1.5;;
53674;SDS011;39574;50.534;8.500;2022-09-03T14:16:25;2.5;;;1.5;;
53674;SDS011;39574;50.534;8.500;2022-09-03T14:21:24;2.4;;;1.4;;
53674;SDS011;39574;50.534;8.500;2022-09-03T14:26:24;2.3;;;1.5;;
53674;SDS011;39574;50.534;8.500;2022-09-03T14:31:25;2.8;;;1.7;;
53674;SDS011;39574;50.534;8.500;2022-09-03T14:36:25;2.8;;;1.6;;
53674;SDS011;39574;50.534;8.500;2022-09-03T14:41:33;3.4;;;1.8;;
53674;SDS011;39574;50.534;8.500;2022-09-03T14:46:26;3.3;;;1.8;;
53674;SDS011;39574;50.534;8.500;2022-09-03T14:51:25;3.0;;;1.8;;
53674;SDS011;39574;50.534;8.500;2022-09-03T14:56:23;2.7;;;1.7;;
53674;SDS011;39574;50.534;8.500;2022-09-03T15:01:22;2.6;;;1.7;;
53674;SDS011;39574;50.534;8.500;2022-09-03T15:06:27;2.8;;;1.8;;
53674;SDS011;39574;50.534;8.500;2022-09-03T15:11:21;2.9;;;1.8;;
53674;SDS011;39574;50.534;8.500;2022-09-03T15:16:25;2.6;;;1.8;;
53674;SDS011;39574;50.534;8.500;2022-09-03T15:21:23;2.6;;;1.8;;
53674;SDS011;39574;50.534;8.500;2022-09-03T15:31:20;2.7;;;1.7;;
53674;SDS011;39574;50.534;8.500;2022-09-03T15:36:19;3.2;;;1.8;;
53674;SDS011;39574;50.534;8.500;2022-09-03T15:41:24;2.8;;;1.7;;
53674;SDS011;39574;50.534;8.500;2022-09-03T15:46:29;2.7;;;1.7;;
53674;SDS011;39574;50.534;8.500;2022-09-03T15:51:19;2.5;;;1.7;;
53674;SDS011;39574;50.534;8.500;2022-09-03T15:56:18;2.7;;;1.7;;
53674;SDS011;39574;50.534;8.500;2022-09-03T16:01:20;2.6;;;1.6;;
53674;SDS011;39574;50.534;8.500;2022-09-03T16:06:19;2.5;;;1.5;;
53674;SDS011;39574;50.534;8.500;2022-09-03T16:11:17;2.5;;;1.6;;
53674;SDS011;39574;50.534;8.500;2022-09-03T16:16:18;2.5;;;1.7;;
53674;SDS011;39574;50.534;8.500;2022-09-03T16:21:20;2.5;;;1.6;;
53674;SDS011;39574;50.534;8.500;2022-09-03T16:26:17;2.4;;;1.6;;
53674;SDS011;39574;50.534;8.500;2022-09-03T16:31:18;2.2;;;1.6;;
53674;SDS011;39574;50.534;8.500;2022-09-03T16:36:19;2.1;;;1.6;;
53674;SDS011;39574;50.534;8.500;2022-09-03T16:41:17;2.5;;;1.6;;
53674;SDS011;39574;50.534;8.500;2022-09-03T16:46:17;2.7;;;1.6;;
53674;SDS011;39574;50.534;8.500;2022-09-03T16:51:15;2.7;;;1.7;;
53674;SDS011;39574;50.534;8.500;2022-09-03T16:56:16;3.2;;;1.9;;
53674;SDS011;39574;50.534;8.500;2022-09-03T17:01:16;3.1;;;1.9;;
53674;SDS011;39574;50.534;8.500;2022-09-03T17:06:26;2.9;;;1.9;;
53674;SDS011;39574;50.534;8.500;2022-09-03T17:11:17;3.1;;;1.9;;
53674;SDS011;39574;50.534;8.500;2022-09-03T17:16:14;4.3;;;2.9;;
53674;SDS011;39574;50.534;8.500;2022-09-03T17:21:14;6.5;;;4.2;;
53674;SDS011;39574;50.534;8.500;2022-09-03T17:26:16;6.2;;;4.0;;
53674;SDS011;39574;50.534;8.500;2022-09-03T17:31:13;4.9;;;3.2;;
53674;SDS011;39574;50.534;8.500;2022-09-03T17:41:12;3.5;;;2.4;;
53674;SDS011;39574;50.534;8.500;2022-09-03T17:46:13;2.8;;;1.9;;
53674;SDS011;39574;50.534;8.500;2022-09-03T17:51:11;2.5;;;1.7;;
53674;SDS011;39574;50.534;8.500;2022-09-03T17:56:10;2.4;;;1.7;;
53674;SDS011;39574;50.534;8.500;2022-09-03T18:01:11;2.5;;;1.6;;
53674;SDS011;39574;50.534;8.500;2022-09-03T18:06:09;2.3;;;1.6;;
53674;SDS011;39574;50.534;8.500;2022-09-03T18:11:08;2.2;;;1.6;;
53674;SDS011;39574;50.534;8.500;2022-09-03T18:16:08;2.3;;;1.5;;
53674;SDS011;39574;50.534;8.500;2022-09-03T18:21:09;2.3;;;1.6;;
53674;SDS011;39574;50.534;8.500;2022-09-03T18:26:07;2.5;;;1.7;;
53674;SDS011;39574;50.534;8.500;2022-09-03T18:31:07;2.5;;;1.7;;
53674;SDS011;39574;50.534;8.500;2022-09-03T18:36:06;2.5;;;1.8;;
53674;SDS011;39574;50.534;8.500;2022-09-03T18:41:07;2.5;;;1.8;;
53674;SDS011;39574;50.534;8.500;2022-09-03T18:46:06;2.6;;;1.9;;
53674;SDS011;39574;50.534;8.500;2022-09-03T18:51:06;2.9;;;1.9;;
53674;SDS011;39574;50.534;8.500;2022-09-03T18:56:07;3.1;;;2.0;;
53674;SDS011;39574;50.534;8.500;2022-09-03T19:01:04;2.8;;;1.9;;
53674;SDS011;39574;50.534;8.500;2022-09-03T19:06:05;2.7;;;1.8;;
53674;SDS011;39574;50.534;8.500;2022-09-03T19:11:04;2.5;;;1.8;;
53674;SDS011;39574;50.534;8.500;2022-09-03T19:16:02;3.0;;;2.2;;
53674;SDS011;39574;50.534;8.500;2022-09-03T19:21:03;3.5;;;2.7;;
53674;SDS011;39574;50.534;8.500;2022-09-03T19:26:03;4.2;;;3.1;;
53674;SDS011;39574;50.534;8.500;2022-09-03T19:31:11;4.7;;;3.2;;
53674;SDS011;39574;50.534;8.500;2022-09-03T19:36:03;5.5;;;3.2;;
53674;SDS011;39574;50.534;8.500;2022-09-03T19:41:01;5.5;;;3.1;;
53674;SDS011;39574;50.534;8.500;2022-09-03T19:46:02;5.2;;;3.1;;
53674;SDS011;39574;50.534;8.500;2022-09-03T19:50:59;4.8;;;3.0;;
53674;SDS011;39574;50.534;8.500;2022-09-03T19:55:59;4.9;;;2.9;;
53674;SDS011;39574;50.534;8.500;2022-09-03T20:00:57;5.3;;;2.6;;
53674;SDS011;39574;50.534;8.500;2022-09-03T20:05:57;4.6;;;2.6;;
53674;SDS011;39574;50.534;8.500;2022-09-03T20:10:56;4.1;;;2.7;;
53674;SDS011;39574;50.534;8.500;2022-09-03T20:15:57;3.6;;;2.5;;
53674;SDS011;39574;50.534;8.500;2022-09-03T20:20:58;3.3;;;2.4;;
53674;SDS011;39574;50.534;8.500;2022-09-03T20:26:00;3.6;;;2.4;;
53674;SDS011;39574;50.534;8.500;2022-09-03T20:30:56;3.5;;;2.4;;
53674;SDS011;39574;50.534;8.500;2022-09-03T20:35:57;3.9;;;2.7;;
53674;SDS011;39574;50.534;8.500;2022-09-03T20:40:54;4.6;;;3.2;;
53674;SDS011;39574;50.534;8.500;2022-09-03T20:45:57;4.3;;;3.2;;
53674;SDS011;39574;50.534;8.500;2022-09-03T20:50:52;4.4;;;3.0;;
53674;SDS011;39574;50.534;8.500;2022-09-03T20:55:52;4.1;;;2.9;;
53674;SDS011;39574;50.534;8.500;2022-09-03T21:05:53;3.8;;;2.8;;
53674;SDS011;39574;50.534;8.500;2022-09-03T21:10:51;3.6;;;2.8;;
53674;SDS011;39574;50.534;8.500;2022-09-03T21:15:52;3.7;;;2.8;;
53674;SDS011;39574;50.534;8.500;2022-09-03T21:20:50;4.4;;;3.1;;
53674;SDS011;39574;50.534;8.500;2022-09-03T21:25:51;4.3;;;3.1;;
53674;SDS011;39574;50.534;8.500;2022-09-03T21:30:49;4.2;;;2.9;;
53674;SDS011;39574;50.534;8.500;2022-09-03T21:35:49;3.8;;;2.8;;
53674;SDS011;39574;50.534;8.500;2022-09-03T21:40:48;3.7;;;2.7;;
53674;SDS011;39574;50.534;8.500;2022-09-03T21:45:49;3.9;;;2.9;;
53674;SDS011;39574;50.534;8.500;2022-09-03T21:50:47;4.0;;;3.0;;
53674;SDS011;39574;50.534;8.500;2022-09-03T21:55:47;4.2;;;3.1;;
53674;SDS011;39574;50.534;8.500;2022-09-03T22:00:44;4.3;;;3.3;;
53674;SDS011;39574;50.534;8.500;2022-09-03T22:05:45;4.2;;;3.3;;
53674;SDS011;39574;50.534;8.500;2022-09-03T22:10:46;4.1;;;3.3;;
53674;SDS011;39574;50.534;8.500;2022-09-03T22:15:42;4.6;;;3.1;;
53674;SDS011;39574;50.534;8.500;2022-09-03T22:20:41;4.4;;;3.0;;
53674;SDS011;39574;50.534;8.500;2022-09-03T22:25:49;4.5;;;3.0;;
53674;SDS011;39574;50.534;8.500;2022-09-03T22:30:43;4.3;;;3.0;;
53674;SDS011;39574;50.534;8.500;2022-09-03T22:35:44;4.0;;;3.1;;
53674;SDS011;39574;50.534;8.500;2022-09-03T22:40:41;3.9;;;3.0;;
53674;SDS011;39574;50.534;8.500;2022-09-03T22:45:43;4.0;;;3.0;;
53674;SDS011;39574;50.534;8.500;2022-09-03T22:50:40;4.1;;;3.0;;
53674;SDS011;39574;50.534;8.500;2022-09-03T22:55:38;4.5;;;2.9;;
53674;SDS011;39574;50.534;8.500;2022-09-03T23:00:37;4.2;;;3.0;;
53674;SDS011;39574;50.534;8.500;2022-09-03T23:05:38;4.3;;;3.1;;
53674;SDS011;39574;50.534;8.500;2022-09-03T23:10:39;4.4;;;3.1;;
53674;SDS011;39574;50.534;8.500;2022-09-03T23:15:35;4.4;;;3.0;;
53674;SDS011;39574;50.534;8.500;2022-09-03T23:20:34;4.6;;;3.0;;
53674;SDS011;39574;50.534;8.500;2022-09-03T23:25:34;4.5;;;3.0;;
53674;SDS011;39574;50.534;8.500;2022-09-03T23:30:32;4.3;;;3.2;;
53674;SDS011;39574;50.534;8.500;2022-09-03T23:35:33;4.5;;;3.4;;
53674;SDS011;39574;50.534;8.500;2022-09-03T23:40:33;4.4;;;3.4;;
53674;SDS011;39574;50.534;8.500;2022-09-03T23:45:32;4.5;;;3.3;;
53674;SDS011;39574;50.534;8.500;2022-09-03T23:50:30;4.6;;;3.2;;
53674;SDS011;39574;50.534;8.500;2022-09-03T23:55:31;4.3;;;3.3;;
